Time;durP1;ratioP1;P1;durP2;ratioP2;P2;SDS_P1;SDS_P2;PMS_P1;PMS_P2;Temp;Humidity;BMP_temperature;BMP_pressure;BME280_temperature;BME280_humidity;BME280_pressure;Samples;Min_cycle;Max_cycle;Signal;HPM_P1;HPM_P2
2022/09/30 00:03:40;;;;;;;5.05;2.75;;;;;;;7.95;100.00;100039.31;10548660;28;20047;-82
2022/09/30 00:08:46;;;;;;;4.07;2.78;;;;;;;7.98;100.00;100044.22;10538306;28;20067;-80
2022/09/30 00:13:51;;;;;;;4.43;3.00;;;;;;;7.98;100.00;100046.13;10564026;28;20040;-80
2022/09/30 00:18:54;;;;;;;4.45;2.60;;;;;;;7.97;100.00;100048.03;10495844;28;20032;-78
2022/09/30 00:23:56;;;;;;;5.97;2.80;;;;;;;8.05;100.00;100052.94;10521868;28;20040;-80
2022/09/30 00:28:59;;;;;;;4.50;2.88;;;;;;;8.09;100.00;100062.22;10546656;28;20044;-80
2022/09/30 00:34:10;;;;;;;5.07;2.60;;;;;;;8.15;100.00;100055.63;10532398;28;20588;-80
2022/09/30 00:39:15;;;;;;;4.55;2.95;;;;;;;8.18;100.00;100053.47;10529900;28;20032;-80
2022/09/30 00:44:56;;;;;;;3.95;3.13;;;;;;;8.24;100.00;100057.81;10504642;28;20028;-80
2022/09/30 00:50:02;;;;;;;4.68;2.75;;;;;;;8.22;100.00;100062.72;10531409;28;20041;-80
2022/09/30 00:55:08;;;;;;;4.50;2.80;;;;;;;8.17;100.00;100058.13;10512546;28;20070;-80
2022/09/30 01:00:11;;;;;;;5.35;2.90;;;;;;;8.16;100.00;100062.75;10492505;28;20043;-81
2022/09/30 01:05:13;;;;;;;4.57;2.80;;;;;;;8.08;100.00;100057.84;10511276;28;20040;-81
2022/09/30 01:10:15;;;;;;;5.28;3.00;;;;;;;8.03;100.00;100068.00;10511117;28;20626;-79
2022/09/30 01:15:20;;;;;;;4.10;2.50;;;;;;;8.00;100.00;100066.63;10528393;28;20048;-79
2022/09/30 01:20:46;;;;;;;3.97;2.30;;;;;;;8.00;100.00;100069.38;10525514;28;20049;-79
2022/09/30 01:25:54;;;;;;;5.78;3.13;;;;;;;8.03;100.00;100062.53;10527294;28;20040;-80
2022/09/30 01:31:15;;;;;;;;;;;;;;;8.03;100.00;100068.00;10560481;28;20043;-80
2022/09/30 01:36:20;;;;;;;4.18;2.47;;;;;;;8.02;100.00;100067.19;10571046;28;19920;-80
2022/09/30 01:41:51;;;;;;;4.03;2.65;;;;;;;8.10;100.00;100061.13;10542856;28;20036;-80
2022/09/30 01:46:59;;;;;;;4.03;2.15;;;;;;;8.14;100.00;100059.47;10498185;28;20044;-80
2022/09/30 01:52:15;;;;;;;4.83;2.67;;;;;;;8.21;100.00;100061.09;10512617;28;20518;-80
2022/09/30 01:57:22;;;;;;;3.38;2.25;;;;;;;8.12;100.00;100075.31;10553195;28;20036;-80
2022/09/30 02:02:27;;;;;;;3.67;2.20;;;;;;;8.19;100.00;100076.97;10547696;28;20040;-80
2022/09/30 02:07:33;;;;;;;3.28;2.53;;;;;;;8.17;100.00;100079.97;10525182;28;20040;-80
2022/09/30 02:13:03;;;;;;;3.38;2.15;;;;;;;8.19;100.00;100076.97;10546311;28;20040;-80
2022/09/30 02:18:18;;;;;;;3.22;2.22;;;;;;;8.25;100.00;100081.31;10524716;28;20421;-80
2022/09/30 02:23:48;;;;;;;4.50;2.60;;;;;;;8.27;100.00;100074.44;10526699;28;20499;-79
2022/09/30 02:28:53;;;;;;;4.50;2.30;;;;;;;8.37;100.00;100070.91;10493753;28;20048;-80
2022/09/30 02:33:59;;;;;;;4.70;2.63;;;;;;;8.40;100.00;100071.16;10512831;28;20037;-80
2022/09/30 02:39:10;;;;;;;4.70;2.90;;;;;;;8.41;100.00;100074.69;10543285;28;20040;-80
2022/09/30 02:44:17;;;;;;;4.65;2.72;;;;;;;8.34;100.00;100075.03;10510168;28;20044;-80
2022/09/30 02:49:25;;;;;;;4.43;2.50;;;;;;;8.33;100.00;100081.56;10525102;28;20041;-80
2022/09/30 02:55:11;;;;;;;3.95;2.05;;;;;;;8.48;100.00;100091.59;10526097;28;20411;-80
2022/09/30 03:00:13;;;;;;;3.13;2.28;;;;;;;8.57;100.00;100089.13;10527353;28;20450;-79
2022/09/30 03:05:16;;;;;;;4.47;2.78;;;;;;;8.56;100.00;100091.03;10507542;28;20051;-80
2022/09/30 03:10:18;;;;;;;4.80;2.80;;;;;;;8.59;100.00;100095.13;10526977;28;20418;-80
2022/09/30 03:16:29;;;;;;;4.55;2.40;;;;;;;8.53;100.00;100105.28;10528895;28;20574;-80
2022/09/30 03:21:49;;;;;;;3.67;2.20;;;;;;;8.52;100.00;100100.91;10460696;28;20048;-80
2022/09/30 03:27:02;;;;;;;4.55;2.90;;;;;;;8.52;100.00;100108.31;10521190;28;20044;-80
2022/09/30 03:32:11;;;;;;;6.95;2.67;;;;;;;8.43;100.00;100108.88;10523526;28;20037;-80
2022/09/30 03:37:25;;;;;;;7.60;3.38;;;;;;;8.45;99.99;100114.88;10536822;28;20048;-80
2022/09/30 03:42:43;;;;;;;4.72;2.67;;;;;;;8.49;99.42;100122.50;10512413;28;20028;-80
2022/09/30 03:47:50;;;;;;;5.32;2.97;;;;;;;8.52;99.44;100125.53;10526388;28;20048;-80
2022/09/30 03:52:52;;;;;;;3.92;2.67;;;;;;;8.53;99.38;100131.81;10506764;28;20045;-80
2022/09/30 03:57:56;;;;;;;5.72;3.20;;;;;;;8.47;99.88;100133.72;10508658;28;20044;-79
2022/09/30 04:03:25;;;;;;;5.82;2.95;;;;;;;8.46;99.00;100137.56;10532644;28;20044;-79
2022/09/30 04:08:27;;;;;;;4.13;2.70;;;;;;;8.52;99.15;100141.13;10555569;28;20041;-81
2022/09/30 04:13:30;;;;;;;5.38;3.05;;;;;;;8.53;98.38;100138.09;10504138;28;20047;-81
2022/09/30 04:18:37;;;;;;;5.25;3.08;;;;;;;8.58;98.66;100153.66;10512905;28;20063;-75
2022/09/30 04:24:25;;;;;;;5.53;3.08;;;;;;;8.50;98.46;100152.31;10520062;27;20135;-84
2022/09/30 04:29:27;;;;;;;5.78;2.88;;;;;;;8.55;97.83;100160.50;10487383;27;20041;-81
2022/09/30 04:34:30;;;;;;;5.53;2.67;;;;;;;8.43;97.46;100160.81;10456290;27;20033;-83
2022/09/30 04:39:32;;;;;;;5.20;2.70;;;;;;;8.45;96.97;100163.25;10489671;28;20511;-84
2022/09/30 04:44:34;;;;;;;3.95;2.50;;;;;;;8.48;96.50;100165.44;10449021;27;20037;-84
2022/09/30 04:49:36;;;;;;;4.65;3.38;;;;;;;8.47;96.63;100166.53;10475122;28;20052;-84
2022/09/30 04:54:39;;;;;;;5.28;2.40;;;;;;;8.48;96.20;100170.09;10471894;28;20044;-84
2022/09/30 04:59:42;;;;;;;5.35;2.65;;;;;;;8.42;96.34;100167.38;10503906;28;20041;-83
2022/09/30 05:04:45;;;;;;;5.40;2.50;;;;;;;8.42;96.22;100167.38;10511287;28;20048;-81
2022/09/30 05:09:47;;;;;;;4.10;2.60;;;;;;;8.36;96.03;100170.41;10519468;28;20049;-83
2022/09/30 05:14:51;;;;;;;5.43;2.40;;;;;;;8.36;95.94;100176.72;10513514;27;20410;-82
2022/09/30 05:19:53;;;;;;;3.78;2.20;;;;;;;8.38;94.99;100176.44;10489904;27;20546;-81
2022/09/30 05:24:55;;;;;;;2.78;2.42;;;;;;;8.36;94.60;100179.44;10481051;28;20037;-79
2022/09/30 05:29:58;;;;;;;3.10;2.05;;;;;;;8.45;94.32;100182.41;10466755;28;20130;-81
2022/09/30 05:35:02;;;;;;;3.25;2.50;;;;;;;9.02;94.13;100187.38;10490322;28;20530;-81
2022/09/30 05:40:05;;;;;;;2.63;1.90;;;;;;;8.85;94.35;100189.66;10464661;28;20045;-81
2022/09/30 05:45:08;;;;;;;2.83;2.42;;;;;;;8.69;94.32;100185.34;10497818;28;20058;-82
2022/09/30 05:50:10;;;;;;;4.75;2.58;;;;;;;8.62;93.83;100193.84;10525604;28;20044;-81
2022/09/30 05:55:13;;;;;;;3.92;2.38;;;;;;;8.59;93.23;100191.66;10491815;28;20417;-81
2022/09/30 06:00:15;;;;;;;4.45;2.47;;;;;;;8.57;93.69;100193.84;10508007;28;20049;-81
2022/09/30 06:05:18;;;;;;;5.13;3.00;;;;;;;8.60;93.48;100197.94;10484035;28;20150;-81
2022/09/30 06:10:20;;;;;;;3.53;2.55;;;;;;;8.68;93.57;100198.22;10483602;28;20049;-81
2022/09/30 06:15:22;;;;;;;4.47;2.88;;;;;;;8.71;93.96;100197.63;10449291;28;20045;-81
2022/09/30 06:20:25;;;;;;;3.35;2.60;;;;;;;8.69;93.75;100201.75;10483680;28;20071;-82
2022/09/30 06:25:28;;;;;;;3.20;2.40;;;;;;;8.69;93.87;100208.03;10465488;28;20037;-81
2022/09/30 06:30:30;;;;;;;3.95;2.10;;;;;;;8.72;92.81;100199.28;10465472;28;20511;-81
2022/09/30 06:35:33;;;;;;;3.13;2.78;;;;;;;8.72;92.46;100202.00;10433152;28;20041;-81
2022/09/30 06:40:38;;;;;;;5.00;2.90;;;;;;;8.73;92.63;100205.56;10482644;28;20041;-81
2022/09/30 06:45:40;;;;;;;3.47;2.53;;;;;;;8.82;92.25;100211.25;10482302;28;20045;-81
2022/09/30 06:50:44;;;;;;;5.07;2.50;;;;;;;8.78;92.04;100208.28;10482587;28;20056;-81
2022/09/30 06:55:47;;;;;;;3.55;2.42;;;;;;;8.74;92.30;100220.88;10507841;28;20052;-81
2022/09/30 07:01:03;;;;;;;4.05;2.70;;;;;;;8.83;91.71;100224.66;10477196;28;20041;-82
2022/09/30 07:06:05;;;;;;;3.42;2.33;;;;;;;8.73;91.77;100230.19;10483565;28;20053;-81
2022/09/30 07:11:16;;;;;;;2.53;2.13;;;;;;;8.82;91.32;100233.97;10440371;28;20049;-80
2022/09/30 07:16:20;;;;;;;5.78;2.60;;;;;;;8.91;91.41;100234.22;10441171;28;20049;-81
2022/09/30 07:21:22;;;;;;;4.28;3.00;;;;;;;8.91;91.19;100243.25;10477747;27;20060;-81
2022/09/30 07:26:25;;;;;;;6.50;3.05;;;;;;;8.98;90.94;100240.19;10488490;28;20040;-82
2022/09/30 07:31:28;;;;;;;4.07;2.80;;;;;;;8.96;91.37;100250.63;10505517;28;20041;-82
2022/09/30 07:36:30;;;;;;;5.80;2.90;;;;;;;9.00;90.73;100248.94;10490427;28;20060;-82
2022/09/30 07:41:36;;;;;;;4.97;3.30;;;;;;;8.99;90.82;100270.03;10436332;28;20099;-82
2022/09/30 07:46:39;;;;;;;4.35;3.13;;;;;;;9.04;90.81;100266.47;10421541;28;20037;-81
2022/09/30 07:51:45;;;;;;;3.33;2.53;;;;;;;9.03;90.96;100268.38;10510155;28;20054;-82
2022/09/30 07:56:47;;;;;;;4.65;2.78;;;;;;;9.06;91.06;100276.03;10516541;28;20037;-82
2022/09/30 08:01:50;;;;;;;3.55;3.08;;;;;;;9.09;90.73;100277.38;10521997;28;20048;-83
2022/09/30 08:06:58;;;;;;;5.18;2.75;;;;;;;9.07;91.09;100285.06;10522111;28;20040;-82
2022/09/30 08:17:33;;;;;;;3.70;3.03;;;;;;;9.04;91.94;100291.91;10521676;28;20044;-81
2022/09/30 08:22:35;;;;;;;6.05;3.45;;;;;;;9.03;91.88;100294.94;10502763;28;20048;-82
2022/09/30 08:27:38;;;;;;;4.20;3.22;;;;;;;8.94;92.17;100299.31;10482499;28;20081;-82
2022/09/30 08:32:40;;;;;;;4.80;2.97;;;;;;;9.02;92.40;100298.75;10464411;28;20037;-82
2022/09/30 08:37:42;;;;;;;4.13;2.25;;;;;;;9.00;91.80;100300.94;10461410;28;20045;-83
2022/09/30 08:43:10;;;;;;;3.22;2.25;;;;;;;9.07;91.38;100309.69;10495949;27;20045;-82
2022/09/30 08:48:18;;;;;;;;;;;;;;;9.16;92.46;100299.78;10506502;28;20032;-81
2022/09/30 08:53:29;;;;;;;4.50;2.40;;;;;;;9.25;91.95;100303.59;10503514;28;20456;-80
2022/09/30 08:58:42;;;;;;;6.07;2.70;;;;;;;9.31;91.51;100307.13;10503053;28;20169;-84
2022/09/30 09:03:44;;;;;;;4.22;2.40;;;;;;;9.34;90.99;100307.38;10470384;28;20467;-81
2022/09/30 09:09:02;;;;;;;3.42;2.38;;;;;;;9.40;90.56;100313.66;10486094;28;20045;-84
2022/09/30 09:14:17;;;;;;;2.57;2.00;;;;;;;9.44;90.33;100312.00;10430576;28;20517;-84
2022/09/30 09:24:51;;;;;;;2.15;1.60;;;;;;;9.70;89.28;100337.31;10479600;28;20053;-80
2022/09/30 09:30:05;;;;;;;2.17;1.63;;;;;;;9.74;88.19;100332.94;10465067;28;20531;-82
2022/09/30 09:35:34;;;;;;;1.83;1.42;;;;;;;9.76;86.97;100330.72;10482887;28;20036;-82
2022/09/30 09:41:02;;;;;;;2.50;1.80;;;;;;;9.79;87.04;100335.63;10525250;28;20052;-83
2022/09/30 09:46:38;;;;;;;1.90;1.25;;;;;;;9.95;85.76;100339.09;10526360;28;20045;-83
2022/09/30 09:51:46;;;;;;;2.33;1.50;;;;;;;10.03;86.00;100340.41;10502190;28;20047;-83
2022/09/30 09:56:51;;;;;;;2.38;1.55;;;;;;;10.07;85.34;100336.84;10484122;28;20045;-83
2022/09/30 10:01:54;;;;;;;1.67;1.40;;;;;;;10.06;84.11;100345.31;10479232;27;20070;-81
2022/09/30 10:07:01;;;;;;;2.72;1.67;;;;;;;10.21;84.43;100337.81;10601151;27;20051;-80
2022/09/30 10:12:06;;;;;;;4.63;1.90;;;;;;;10.26;83.76;100346.03;10487718;27;20051;-82
2022/09/30 10:17:17;;;;;;;2.72;1.60;;;;;;;10.33;83.51;100345.69;10488520;28;20062;-81
2022/09/30 10:22:26;;;;;;;1.95;1.42;;;;;;;10.34;82.66;100358.31;10470789;28;20045;-81
2022/09/30 10:27:31;;;;;;;1.92;1.45;;;;;;;10.29;82.39;100352.88;10538606;27;20529;-83
2022/09/30 10:32:34;;;;;;;1.85;1.38;;;;;;;10.32;81.78;100357.78;10466689;28;20045;-79
2022/09/30 10:37:36;;;;;;;1.98;1.40;;;;;;;10.34;82.11;100358.31;10519070;27;20513;-81
2022/09/30 10:42:39;;;;;;;2.72;1.60;;;;;;;10.43;81.61;100356.59;10453267;28;20052;-80
2022/09/30 10:47:44;;;;;;;2.35;1.58;;;;;;;10.51;81.58;100361.47;10449465;28;20057;-84
2022/09/30 10:52:52;;;;;;;5.20;1.92;;;;;;;10.62;81.06;100367.69;10501426;27;20047;-80
2022/09/30 10:57:57;;;;;;;3.13;1.70;;;;;;;10.68;81.05;100361.03;10483289;27;20049;-82
2022/09/30 11:03:24;;;;;;;2.70;1.92;;;;;;;10.67;80.54;100372.31;10466571;28;20037;-82
2022/09/30 11:08:36;;;;;;;2.72;1.70;;;;;;;10.74;80.70;100361.78;10477041;28;20044;-79
2022/09/30 11:13:49;;;;;;;2.30;1.70;;;;;;;10.82;81.09;100359.25;10452740;28;20033;-79
2022/09/30 11:19:13;;;;;;;4.43;2.03;;;;;;;10.93;80.02;100362.69;10443241;27;20041;-82
2022/09/30 11:24:38;;;;;;;3.38;1.80;;;;;;;11.00;79.49;100362.38;10440474;28;20044;-83
2022/09/30 11:29:51;;;;;;;2.80;2.00;;;;;;;11.08;79.34;100373.53;10487182;28;20055;-84
2022/09/30 11:35:27;;;;;;;2.92;2.15;;;;;;;11.12;78.89;100369.13;10466612;28;20056;-84
2022/09/30 11:40:41;;;;;;;4.07;2.53;;;;;;;11.07;78.65;100373.81;10448221;28;20049;-86
2022/09/30 11:45:52;;;;;;;2.95;2.08;;;;;;;10.96;78.70;100375.06;10453470;27;20068;-84
2022/09/30 11:51:09;;;;;;;1.83;1.40;;;;;;;10.91;78.43;100377.81;10522860;27;20047;-84
2022/09/30 11:56:48;;;;;;;4.85;1.48;;;;;;;10.85;78.40;100385.31;10473101;28;20046;-85
2022/09/30 12:01:53;;;;;;;3.25;1.50;;;;;;;10.79;78.13;100383.72;10414371;28;20037;-85
2022/09/30 12:06:59;;;;;;;3.92;1.77;;;;;;;10.90;78.96;100393.47;10467326;28;20045;-86
2022/09/30 12:12:10;;;;;;;2.15;1.40;;;;;;;10.85;78.50;100397.09;10484104;28;20056;-85
2022/09/30 12:17:20;;;;;;;3.08;1.35;;;;;;;10.78;78.76;100390.31;10457410;28;20043;-84
2022/09/30 12:22:30;;;;;;;2.97;1.60;;;;;;;10.68;79.29;100393.16;10472127;28;20048;-85
2022/09/30 12:27:44;;;;;;;1.90;1.40;;;;;;;10.58;80.91;100402.25;10474477;28;20041;-84
2022/09/30 12:33:18;;;;;;;2.38;1.90;;;;;;;10.52;81.35;100409.72;10446265;27;20051;-87
2022/09/30 12:38:32;;;;;;;2.05;1.60;;;;;;;10.40;82.08;100409.25;10479663;27;20036;-87
2022/09/30 12:44:16;;;;;;;2.65;1.67;;;;;;;10.28;82.92;100428.03;10492067;27;20034;-88
2022/09/30 12:49:45;;;;;;;2.63;1.65;;;;;;;10.28;83.50;100419.78;10480109;28;20045;-88
2022/09/30 12:54:52;;;;;;;3.03;2.10;;;;;;;10.27;84.38;100418.16;10455378;28;20063;-85
2022/09/30 13:00:19;;;;;;;2.22;1.35;;;;;;;10.23;84.04;100422.53;10436030;28;20501;-87
2022/09/30 13:05:30;;;;;;;2.30;1.30;;;;;;;10.16;85.00;100424.75;10482122;28;20053;-86
2022/09/30 13:10:36;;;;;;;1.77;1.35;;;;;;;10.14;84.19;100427.78;10494032;28;20037;-81
2022/09/30 13:16:05;;;;;;;2.67;1.77;;;;;;;10.14;84.64;100438.75;10464414;27;20411;-82
2022/09/30 13:21:08;;;;;;;2.05;1.70;;;;;;;10.16;84.34;100449.44;10494750;27;20052;-80
2022/09/30 13:26:30;;;;;;;1.60;1.50;;;;;;;10.10;84.81;100453.31;10474281;28;20042;-83
2022/09/30 13:31:52;;;;;;;2.78;1.48;;;;;;;10.09;85.00;100452.50;10450114;28;20427;-78
2022/09/30 13:36:57;;;;;;;1.80;1.40;;;;;;;10.07;84.99;100451.16;10441286;28;20417;-83
2022/09/30 13:41:59;;;;;;;1.95;1.35;;;;;;;10.04;84.75;100452.50;10480396;28;20525;-80
2022/09/30 13:47:14;;;;;;;1.15;1.00;;;;;;;9.96;84.10;100466.81;10497739;27;20538;-81
2022/09/30 13:52:29;;;;;;;1.08;0.98;;;;;;;9.85;84.27;100471.50;10436596;27;20498;-78
2022/09/30 13:57:48;;;;;;;1.60;1.20;;;;;;;9.71;84.67;100481.44;10465069;28;20041;-76
2022/09/30 14:03:05;;;;;;;1.92;1.50;;;;;;;9.59;86.78;100484.50;10465086;27;20037;-75
2022/09/30 14:08:11;;;;;;;1.80;1.58;;;;;;;9.53;88.04;100484.78;10495097;27;20087;-75
2022/09/30 14:13:37;;;;;;;6.38;1.52;;;;;;;9.46;88.91;100487.00;10460356;28;20045;-77
2022/09/30 14:18:49;;;;;;;2.30;1.45;;;;;;;9.44;89.41;100481.78;10477476;27;20491;-79
2022/09/30 14:24:06;;;;;;;2.33;1.60;;;;;;;9.36;90.60;100485.91;10472585;28;20071;-79
2022/09/30 14:29:15;;;;;;;4.25;1.63;;;;;;;9.39;90.55;100489.22;10446873;28;20391;-79
2022/09/30 14:34:19;;;;;;;2.63;1.80;;;;;;;9.38;91.23;100487.56;10462623;28;20044;-79
2022/09/30 14:39:27;;;;;;;1.70;1.52;;;;;;;9.44;91.68;100498.22;10464347;28;20053;-78
2022/09/30 14:44:32;;;;;;;2.20;1.63;;;;;;;9.47;91.62;100502.31;10482648;28;20144;-78
2022/09/30 14:49:36;;;;;;;2.58;1.50;;;;;;;9.47;91.44;100505.06;10482271;28;20049;-79
2022/09/30 14:54:46;;;;;;;2.38;1.65;;;;;;;9.42;91.68;100502.34;10482388;28;20029;-79
2022/09/30 14:59:49;;;;;;;3.05;2.00;;;;;;;9.38;92.08;100509.47;10481426;28;20048;-79
2022/09/30 15:04:53;;;;;;;4.28;1.95;;;;;;;9.36;92.44;100513.28;10481169;28;20041;-79
2022/09/30 15:10:00;;;;;;;2.80;1.73;;;;;;;9.33;92.01;100518.50;10464453;28;20037;-78
2022/09/30 15:15:25;;;;;;;3.33;2.10;;;;;;;9.29;91.71;100517.41;10446594;28;20512;-79
2022/09/30 15:20:32;;;;;;;6.45;2.70;;;;;;;9.23;92.56;100524.00;10447560;28;20142;-79
2022/09/30 15:25:35;;;;;;;6.13;3.10;;;;;;;9.24;92.62;100526.47;10422111;28;20049;-79
2022/09/30 15:30:37;;;;;;;7.20;3.35;;;;;;;9.16;92.64;100532.47;10439997;28;20427;-79
2022/09/30 15:35:40;;;;;;;3.75;2.58;;;;;;;9.10;92.00;100535.50;10422841;28;20045;-80
2022/09/30 15:40:48;;;;;;;4.47;2.33;;;;;;;8.95;91.98;100528.09;10438778;28;20072;-78
2022/09/30 15:45:52;;;;;;;3.08;1.80;;;;;;;8.87;91.21;100539.59;10439276;28;20518;-79
2022/09/30 15:50:57;;;;;;;6.43;2.95;;;;;;;8.83;90.67;100542.03;10440701;28;20423;-79
2022/09/30 15:56:14;;;;;;;5.25;2.10;;;;;;;8.87;90.58;100545.91;10421599;28;20045;-79
2022/09/30 16:01:20;;;;;;;4.00;1.55;;;;;;;8.92;91.12;100550.53;10421232;28;20518;-78
2022/09/30 16:06:31;;;;;;;4.05;1.80;;;;;;;8.85;90.42;100560.91;10410593;28;20041;-79
2022/09/30 16:11:40;;;;;;;3.97;1.90;;;;;;;8.85;90.28;100560.91;10500961;28;20044;-78
2022/09/30 16:16:47;;;;;;;4.63;1.60;;;;;;;8.83;89.80;100563.94;10485660;27;20419;-76
2022/09/30 16:21:51;;;;;;;3.25;1.50;;;;;;;8.87;89.89;100564.22;10438791;28;20064;-78
2022/09/30 16:26:59;;;;;;;3.15;1.77;;;;;;;8.76;89.49;100568.84;10422124;28;20160;-78
2022/09/30 16:32:01;;;;;;;6.43;1.50;;;;;;;8.71;88.78;100571.59;10473794;28;20044;-78
2022/09/30 16:37:13;;;;;;;1.98;1.42;;;;;;;8.70;88.25;100570.78;10493093;28;20051;-77
2022/09/30 16:42:16;;;;;;;3.33;1.52;;;;;;;8.76;87.55;100575.16;10427429;27;20430;-75
2022/09/30 16:47:19;;;;;;;2.63;1.45;;;;;;;8.75;87.57;100575.41;10451947;28;20086;-77
2022/09/30 16:52:23;;;;;;;1.75;1.10;;;;;;;8.74;87.58;100577.34;10491792;28;20047;-75
2022/09/30 16:57:25;;;;;;;2.53;1.40;;;;;;;8.76;87.26;100588.81;10461674;28;20040;-75
2022/09/30 17:02:28;;;;;;;2.88;1.35;;;;;;;8.82;86.63;100592.38;10459131;28;20053;-73
2022/09/30 17:07:30;;;;;;;3.05;2.00;;;;;;;8.84;86.45;100597.59;10477784;28;20060;-76
2022/09/30 17:12:33;;;;;;;1.73;1.30;;;;;;;8.83;86.49;100601.41;10489800;28;20055;-74
2022/09/30 17:17:35;;;;;;;2.55;1.65;;;;;;;8.90;86.50;100612.94;10512334;28;20427;-73
2022/09/30 17:22:38;;;;;;;2.08;1.30;;;;;;;8.92;85.45;100610.75;10436683;28;20054;-75
2022/09/30 17:27:41;;;;;;;2.00;1.52;;;;;;;8.93;85.47;100620.59;10460229;28;20053;-73
2022/09/30 17:32:44;;;;;;;1.50;1.40;;;;;;;8.92;85.15;100611.56;10483449;28;20045;-77
2022/09/30 17:37:46;;;;;;;2.78;1.40;;;;;;;8.93;85.31;100626.91;10502255;28;20055;-77
2022/09/30 17:43:07;;;;;;;2.10;1.50;;;;;;;8.92;84.91;100621.69;10488158;28;20502;-79
2022/09/30 17:48:10;;;;;;;2.45;1.67;;;;;;;8.85;85.39;100626.59;10494462;28;20056;-78
2022/09/30 17:53:18;;;;;;;1.80;1.20;;;;;;;8.89;84.64;100627.72;10492241;28;20363;-79
2022/09/30 17:58:20;;;;;;;2.33;1.67;;;;;;;8.88;85.68;100634.28;10462678;28;20048;-78
2022/09/30 18:03:25;;;;;;;2.72;1.50;;;;;;;8.85;85.63;100632.91;10496637;28;20052;-78
2022/09/30 18:08:27;;;;;;;2.38;1.73;;;;;;;8.84;85.50;100646.84;10479454;27;20048;-77
2022/09/30 18:13:30;;;;;;;1.95;1.35;;;;;;;8.82;84.84;100638.91;10447891;28;20053;-81
2022/09/30 18:18:33;;;;;;;1.58;1.10;;;;;;;8.79;84.72;100639.44;10492605;28;20414;-79
2022/09/30 18:23:36;;;;;;;1.15;1.05;;;;;;;8.72;85.04;100645.19;10580702;27;20052;-82
2022/09/30 18:28:38;;;;;;;1.33;1.10;;;;;;;8.77;84.95;100647.91;10486308;28;20087;-82
2022/09/30 18:33:40;;;;;;;1.40;0.95;;;;;;;8.79;85.29;100655.03;10485058;28;20037;-79
2022/09/30 18:38:43;;;;;;;1.10;1.00;;;;;;;8.73;85.18;100654.22;10482833;28;20056;-79
2022/09/30 18:43:45;;;;;;;1.45;1.15;;;;;;;8.74;84.52;100661.31;10488070;28;20061;-81
2022/09/30 18:48:48;;;;;;;2.63;1.27;;;;;;;8.69;85.05;100656.66;10443666;28;20041;-82
2022/09/30 18:53:56;;;;;;;1.40;1.20;;;;;;;8.67;84.74;100664.28;10539268;27;20045;-80
2022/09/30 18:59:01;;;;;;;4.13;1.17;;;;;;;8.63;85.30;100667.84;10485184;28;20128;-81
2022/09/30 19:04:03;;;;;;;2.67;1.40;;;;;;;8.63;84.87;100667.84;10445939;28;20064;-82
2022/09/30 19:09:06;;;;;;;4.20;2.05;;;;;;;8.59;85.57;100666.72;10471095;28;20067;-80
2022/09/30 19:14:11;;;;;;;1.85;1.40;;;;;;;8.59;84.84;100677.66;10466944;27;20041;-81
2022/09/30 19:19:14;;;;;;;2.65;1.20;;;;;;;8.54;85.51;100675.75;10439613;28;20613;-80
2022/09/30 19:24:17;;;;;;;1.85;1.23;;;;;;;8.49;85.44;100678.44;10485155;28;20041;-81
2022/09/30 19:29:19;;;;;;;1.42;1.33;;;;;;;8.51;85.65;100681.75;10455818;28;20052;-78
2022/09/30 19:34:21;;;;;;;1.80;1.48;;;;;;;8.52;86.25;100694.34;10472085;28;20053;-86
2022/09/30 19:39:24;;;;;;;2.67;1.60;;;;;;;8.42;85.81;100705.22;10453170;28;20506;-84
2022/09/30 19:44:26;;;;;;;2.05;1.38;;;;;;;8.34;86.04;100703.00;10473539;28;20046;-83
2022/09/30 19:49:29;;;;;;;3.53;2.20;;;;;;;8.28;86.71;100704.00;10434050;28;20106;-82
2022/09/30 19:54:32;;;;;;;3.30;1.80;;;;;;;8.23;87.09;100713.00;10466324;28;20049;-83
2022/09/30 19:59:35;;;;;;;2.50;1.52;;;;;;;8.06;87.49;100720.53;10501060;28;20074;-82
2022/09/30 20:04:39;;;;;;;5.15;1.20;;;;;;;8.05;87.03;100713.44;10478457;28;20132;-82
2022/09/30 20:09:42;;;;;;;5.28;1.27;;;;;;;7.98;87.65;100721.00;10454950;28;20040;-81
2022/09/30 20:25:29;;;;;;;1.67;1.20;;;;;;;8.05;88.64;100738.03;10484909;28;20057;-85
2022/09/30 20:30:32;;;;;;;1.92;1.27;;;;;;;8.05;88.48;100733.38;10450296;28;20136;-82
2022/09/30 20:35:35;;;;;;;3.25;1.27;;;;;;;8.08;88.72;100735.59;10433265;28;20060;-86
2022/09/30 20:40:38;;;;;;;2.63;1.67;;;;;;;8.10;88.41;100741.59;10464653;28;20057;-88
2022/09/30 20:45:41;;;;;;;2.47;1.33;;;;;;;8.09;88.44;100734.50;10468467;28;20059;-79
2022/09/30 20:50:44;;;;;;;2.92;1.80;;;;;;;8.11;88.92;100743.25;10475408;28;20497;-88
2022/09/30 20:55:46;;;;;;;2.15;1.10;;;;;;;8.12;88.81;100741.34;10452891;28;20042;-86
2022/09/30 21:00:51;;;;;;;0.85;0.73;;;;;;;8.13;89.75;100735.59;10432056;28;20129;-82
2022/09/30 21:05:53;;;;;;;2.08;1.13;;;;;;;8.16;89.51;100746.03;10473864;28;20065;-86
2022/09/30 21:10:59;;;;;;;1.20;1.10;;;;;;;8.17;89.30;100746.88;10459680;28;20056;-79
2022/09/30 21:16:03;;;;;;;1.55;1.08;;;;;;;8.12;90.07;100747.63;10467290;28;20062;-83
2022/09/30 21:21:05;;;;;;;1.33;1.05;;;;;;;8.09;89.79;100752.81;10440259;28;20048;-82
2022/09/30 21:26:10;;;;;;;1.42;1.02;;;;;;;8.03;89.51;100749.22;10454092;28;20045;-80
2022/09/30 21:31:26;;;;;;;1.45;1.05;;;;;;;8.00;89.54;100741.56;10460762;28;20045;-81
2022/09/30 21:36:28;;;;;;;1.50;0.90;;;;;;;7.92;89.36;100755.69;10485445;27;20041;-82
2022/09/30 21:41:31;;;;;;;3.05;1.48;;;;;;;7.84;89.71;100758.91;10440608;28;20029;-80
2022/09/30 21:46:34;;;;;;;3.45;1.10;;;;;;;7.77;89.66;100752.81;10439896;28;20060;-79
2022/09/30 21:51:36;;;;;;;1.73;1.30;;;;;;;7.67;90.00;100752.72;10483538;28;20037;-82
2022/09/30 21:56:40;;;;;;;2.67;1.10;;;;;;;7.62;90.21;100753.50;10494517;28;20041;-81
2022/09/30 22:01:42;;;;;;;1.45;1.00;;;;;;;7.70;89.52;100753.03;10488480;28;20049;-80
2022/09/30 22:06:45;;;;;;;2.35;1.10;;;;;;;7.73;89.64;100757.97;10481247;28;20074;-79
2022/09/30 22:11:48;;;;;;;1.30;0.90;;;;;;;7.64;89.83;100765.00;10453733;27;20050;-91
2022/09/30 22:16:54;;;;;;;1.92;1.42;;;;;;;7.66;89.09;100767.47;10463037;28;20072;-78
2022/09/30 22:21:56;;;;;;;2.67;1.20;;;;;;;7.64;89.86;100772.38;10498926;27;20057;-81
2022/09/30 22:26:58;;;;;;;2.33;1.20;;;;;;;7.62;89.64;100766.31;10527238;27;20048;-81
2022/09/30 22:32:01;;;;;;;1.65;1.02;;;;;;;7.54;88.92;100786.75;10461659;28;20084;-81
2022/09/30 22:38:13;;;;;;;2.28;1.00;;;;;;;7.51;88.79;100792.72;10506905;28;20044;-80
2022/09/30 22:42:28;;;;;;;3.17;1.00;;;;;;;7.46;89.58;100787.19;10510765;27;20041;-80
2022/09/30 22:47:30;;;;;;;1.95;1.08;;;;;;;7.50;89.05;100785.59;10446136;28;20056;-81
2022/09/30 22:52:32;;;;;;;2.05;1.15;;;;;;;7.51;88.72;100785.34;10459773;28;20037;-79
2022/09/30 22:57:35;;;;;;;1.23;0.80;;;;;;;7.45;89.55;100786.34;10492274;28;20049;-79
2022/09/30 23:02:37;;;;;;;4.57;1.08;;;;;;;7.45;88.97;100783.63;10476264;28;20040;-79
2022/09/30 23:07:39;;;;;;;1.48;1.10;;;;;;;7.44;89.08;100792.91;10468491;27;20049;-80
2022/09/30 23:12:41;;;;;;;1.35;1.00;;;;;;;7.41;89.57;100798.88;10467708;28;20037;-81
2022/09/30 23:17:43;;;;;;;1.77;1.10;;;;;;;7.38;89.42;100799.41;10466648;28;20073;-80
2022/09/30 23:22:46;;;;;;;1.50;0.88;;;;;;;7.37;89.58;100796.94;10476343;28;20057;-80
2022/09/30 23:27:48;;;;;;;1.85;1.13;;;;;;;7.35;89.47;100793.63;10464664;28;20415;-80
2022/09/30 23:32:50;;;;;;;0.80;0.80;;;;;;;7.29;90.12;100795.50;10475511;28;20049;-80
2022/09/30 23:37:52;;;;;;;1.63;1.00;;;;;;;7.25;89.37;100794.31;10484159;28;20041;-80
2022/09/30 23:42:56;;;;;;;1.27;0.80;;;;;;;7.30;89.77;100802.59;10499192;28;20060;-80
2022/09/30 23:47:58;;;;;;;4.40;0.90;;;;;;;7.35;89.80;100799.91;10508788;27;20044;-80
2022/09/30 23:53:00;;;;;;;1.67;0.90;;;;;;;7.41;90.02;100807.06;10478506;27;20049;-80
2022/09/30 23:58:06;;;;;;;2.40;1.13;;;;;;;7.42;90.71;100808.72;10470367;28;20068;-79
